createdAt,value
2022-08-17T00:03:42.715Z,6.67
2022-08-17T00:06:13.225Z,5.05
2022-08-17T00:08:46.345Z,5.05
2022-08-17T00:11:20.143Z,5.75
2022-08-17T00:13:55.893Z,6.18
2022-08-17T00:16:50.484Z,4.50
2022-08-17T00:19:24.354Z,4.05
2022-08-17T00:22:33.753Z,4.78
2022-08-17T00:24:40.482Z,4.28
2022-08-17T00:27:08.316Z,4.30
2022-08-17T00:29:35.315Z,4.35
2022-08-17T00:33:15.280Z,4.43
2022-08-17T00:34:50.637Z,4.07
2022-08-17T00:37:17.623Z,4.25
2022-08-17T00:39:44.643Z,4.40
2022-08-17T00:42:16.821Z,4.40
2022-08-17T00:44:45.014Z,5.10
2022-08-17T00:47:11.941Z,6.25
2022-08-17T00:49:38.822Z,4.93
2022-08-17T00:52:15.669Z,4.70
2022-08-17T00:54:46.692Z,4.73
2022-08-17T00:57:20.265Z,4.82
2022-08-17T01:00:03.362Z,5.20
2022-08-17T01:02:42.370Z,4.82
2022-08-17T01:05:18.460Z,6.28
2022-08-17T01:07:48.107Z,4.97
2022-08-17T01:10:59.361Z,4.93
2022-08-17T01:13:04.791Z,5.35
2022-08-17T01:15:35.218Z,4.95
2022-08-17T01:18:02.913Z,5.05
2022-08-17T01:20:30.012Z,5.65
2022-08-17T01:23:16.398Z,4.82
2022-08-17T01:25:51.640Z,4.53
2022-08-17T01:28:33.219Z,5.07
2022-08-17T01:31:07.476Z,5.13
2022-08-17T01:33:34.448Z,4.60
2022-08-17T01:36:01.516Z,4.65
2022-08-17T01:38:32.035Z,4.32
2022-08-17T01:41:06.122Z,4.93
2022-08-17T01:44:01.608Z,5.13
2022-08-17T01:46:32.225Z,6.07
2022-08-17T01:48:59.622Z,4.43
2022-08-17T01:51:32.845Z,4.32
2022-08-17T01:54:05.765Z,6.07
2022-08-17T01:56:35.246Z,5.68
2022-08-17T01:59:03.125Z,4.85
2022-08-17T02:01:32.542Z,4.78
2022-08-17T02:04:01.087Z,4.80
2022-08-17T02:06:31.454Z,5.47
2022-08-17T02:09:16.403Z,5.03
2022-08-17T02:11:44.955Z,4.60
2022-08-17T02:14:13.834Z,4.45
2022-08-17T02:16:41.646Z,4.60
2022-08-17T02:19:14.192Z,5.10
2022-08-17T02:21:42.929Z,5.05
2022-08-17T02:24:13.472Z,5.60
2022-08-17T02:26:40.658Z,5.53
2022-08-17T02:29:07.854Z,5.30
2022-08-17T02:31:35.758Z,5.35
2022-08-17T02:34:04.930Z,5.55
2022-08-17T02:36:34.341Z,5.97
2022-08-17T02:39:07.115Z,5.40
2022-08-17T02:41:34.294Z,5.95
2022-08-17T02:44:01.611Z,5.50
2022-08-17T02:46:30.775Z,5.18
2022-08-17T02:48:58.042Z,5.03
2022-08-17T02:51:25.510Z,4.40
2022-08-17T02:53:52.860Z,4.63
2022-08-17T02:56:39.859Z,4.80
2022-08-17T02:59:06.822Z,4.55
2022-08-17T03:01:33.768Z,4.47
2022-08-17T03:04:00.938Z,4.90
2022-08-17T03:06:31.963Z,4.75
2022-08-17T03:08:59.134Z,4.38
2022-08-17T03:11:26.099Z,4.63
2022-08-17T03:13:53.076Z,4.22
2022-08-17T03:16:19.948Z,4.60
2022-08-17T03:18:47.027Z,4.72
2022-08-17T03:21:14.144Z,4.50
2022-08-17T03:23:42.349Z,4.40
2022-08-17T03:26:12.358Z,4.32
2022-08-17T03:28:42.381Z,4.38
2022-08-17T03:31:09.579Z,4.35
2022-08-17T03:33:36.579Z,4.32
2022-08-17T03:36:03.863Z,4.75
2022-08-17T03:38:38.991Z,4.60
2022-08-17T03:41:07.502Z,4.60
2022-08-17T03:43:34.927Z,3.80
2022-08-17T03:46:27.883Z,4.72
2022-08-17T03:49:25.504Z,3.80
2022-08-17T03:52:11.771Z,4.32
2022-08-17T03:54:58.360Z,3.77
2022-08-17T03:57:26.279Z,4.25
2022-08-17T03:59:54.432Z,3.92
2022-08-17T04:02:32.058Z,4.28
2022-08-17T04:04:59.335Z,3.60
2022-08-17T04:07:29.812Z,3.70
2022-08-17T04:09:58.301Z,3.63
2022-08-17T04:12:26.365Z,3.45
2022-08-17T04:14:54.938Z,3.90
2022-08-17T04:17:25.684Z,4.05
2022-08-17T04:19:53.405Z,3.78
2022-08-17T04:22:30.666Z,3.95
2022-08-17T04:25:07.845Z,3.88
2022-08-17T04:27:34.834Z,3.72
2022-08-17T04:30:02.669Z,3.30
2022-08-17T04:33:00.516Z,3.88
2022-08-17T04:35:25.737Z,3.75
2022-08-17T04:37:53.810Z,4.18
2022-08-17T04:40:41.225Z,4.13
2022-08-17T04:43:14.342Z,3.70
2022-08-17T04:45:54.881Z,3.33
2022-08-17T04:48:36.381Z,3.75
2022-08-17T04:51:11.996Z,3.65
2022-08-17T04:53:44.724Z,3.97
2022-08-17T04:56:16.863Z,4.20
2022-08-17T04:58:49.789Z,4.22
2022-08-17T05:01:19.078Z,4.60
2022-08-17T05:03:54.904Z,4.30
2022-08-17T05:06:22.788Z,5.00
2022-08-17T05:08:49.758Z,4.10
2022-08-17T05:11:16.973Z,4.20
2022-08-17T05:13:44.977Z,4.18
2022-08-17T05:16:12.173Z,4.03
2022-08-17T05:18:39.238Z,3.60
2022-08-17T05:21:07.091Z,3.85
2022-08-17T05:23:41.769Z,4.22
2022-08-17T05:26:26.153Z,3.50
2022-08-17T05:28:57.204Z,4.40
2022-08-17T05:31:27.532Z,3.95
2022-08-17T05:33:54.577Z,3.95
2022-08-17T05:36:41.882Z,3.40
2022-08-17T05:39:08.694Z,3.25
2022-08-17T05:41:42.902Z,2.97
2022-08-17T05:44:09.905Z,3.10
2022-08-17T05:46:42.935Z,3.85
2022-08-17T05:49:11.266Z,3.20
2022-08-17T05:52:18.786Z,3.00
2022-08-17T05:55:24.453Z,3.40
2022-08-17T05:58:35.863Z,21.40
2022-08-17T06:01:31.799Z,3.75
2022-08-17T06:04:12.740Z,3.35
2022-08-17T06:06:48.035Z,3.75
2022-08-17T06:09:30.113Z,4.50
2022-08-17T06:12:18.884Z,5.40
2022-08-17T06:17:34.835Z,6.13
2022-08-17T06:20:10.522Z,3.58
2022-08-17T06:22:44.771Z,3.42
2022-08-17T06:25:22.996Z,4.10
2022-08-17T06:28:20.212Z,3.20
2022-08-17T06:33:35.396Z,3.50
2022-08-17T06:36:40.579Z,3.25
2022-08-17T06:39:39.738Z,3.40
2022-08-17T06:42:58.832Z,4.63
2022-08-17T06:45:15.155Z,3.17
2022-08-17T06:47:59.550Z,3.83
2022-08-17T06:50:42.593Z,3.40
2022-08-17T06:53:36.615Z,3.38
2022-08-17T06:56:06.453Z,3.45
2022-08-17T06:58:35.919Z,3.42
2022-08-17T07:01:09.954Z,3.20
2022-08-17T07:03:44.812Z,3.65
2022-08-17T07:06:18.915Z,3.63
2022-08-17T07:09:08.196Z,4.45
2022-08-17T07:11:51.848Z,3.47
2022-08-17T07:14:38.535Z,4.15
2022-08-17T07:17:13.442Z,4.03
2022-08-17T07:19:45.587Z,4.18
2022-08-17T07:22:58.141Z,3.20
2022-08-17T07:25:28.779Z,3.28
2022-08-17T07:28:00.415Z,3.53
2022-08-17T07:30:45.895Z,3.55
2022-08-17T07:33:24.229Z,3.72
2022-08-17T07:35:51.758Z,3.85
2022-08-17T07:38:28.477Z,5.07
2022-08-17T07:41:00.018Z,3.22
2022-08-17T07:43:41.874Z,3.55
2022-08-17T07:46:30.271Z,2.88
2022-08-17T07:49:08.761Z,3.00
2022-08-17T07:51:59.971Z,3.08
2022-08-17T07:54:42.855Z,2.97
2022-08-17T07:57:13.040Z,2.65
2022-08-17T08:00:04.355Z,2.90
2022-08-17T08:02:34.602Z,3.20
2022-08-17T08:05:30.742Z,2.95
2022-08-17T08:08:39.872Z,3.05
2022-08-17T08:11:10.643Z,3.05
2022-08-17T08:13:44.005Z,8.73
2022-08-17T08:16:24.706Z,3.00
2022-08-17T08:19:00.430Z,3.70
2022-08-17T08:21:39.434Z,3.17
2022-08-17T08:24:12.402Z,2.75
2022-08-17T08:26:49.172Z,2.30
2022-08-17T08:29:28.465Z,2.60
2022-08-17T08:32:22.362Z,3.00
2022-08-17T08:35:31.113Z,2.72
2022-08-17T08:38:23.902Z,2.65
2022-08-17T08:41:24.313Z,2.50
2022-08-17T08:44:08.201Z,3.28
2022-08-17T08:47:00.043Z,3.15
2022-08-17T08:50:06.944Z,2.80
2022-08-17T08:53:01.513Z,2.80
2022-08-17T08:55:48.193Z,3.00
2022-08-17T08:58:31.992Z,3.33
2022-08-17T09:01:48.225Z,3.38
2022-08-17T09:04:25.042Z,2.85
2022-08-17T09:07:28.377Z,3.42
2022-08-17T09:10:01.125Z,3.55
2022-08-17T09:12:41.906Z,3.03
2022-08-17T09:15:27.818Z,2.80
2022-08-17T09:19:01.184Z,2.80
2022-08-17T09:21:08.146Z,3.13
2022-08-17T09:23:45.002Z,3.05
2022-08-17T09:26:24.364Z,3.30
2022-08-17T09:28:56.043Z,3.15
2022-08-17T09:31:46.432Z,2.72
2022-08-17T09:34:22.463Z,3.03
2022-08-17T09:37:15.294Z,2.78
2022-08-17T09:40:02.620Z,2.63
2022-08-17T09:42:36.324Z,3.40
2022-08-17T09:45:19.786Z,3.00
2022-08-17T09:48:00.772Z,3.28
2022-08-17T09:51:07.160Z,2.88
2022-08-17T09:53:38.223Z,2.63
2022-08-17T09:56:43.766Z,2.95
2022-08-17T09:59:38.232Z,3.22
2022-08-17T10:02:34.304Z,3.22
2022-08-17T10:05:15.849Z,3.25
2022-08-17T10:08:09.627Z,3.92
2022-08-17T10:10:52.492Z,3.13
2022-08-17T10:13:35.571Z,2.92
2022-08-17T10:16:21.126Z,2.90
2022-08-17T10:19:02.264Z,3.70
2022-08-17T10:22:00.881Z,2.88
2022-08-17T10:25:21.175Z,2.90
2022-08-17T10:27:54.127Z,3.28
2022-08-17T10:30:25.257Z,3.40
2022-08-17T10:32:57.767Z,3.40
2022-08-17T10:35:36.007Z,2.97
2022-08-17T10:38:30.070Z,3.00
2022-08-17T10:41:06.293Z,5.75
2022-08-17T10:43:57.843Z,3.42
2022-08-17T10:47:11.882Z,2.60
2022-08-17T10:49:47.914Z,4.47
2022-08-17T10:52:21.942Z,3.15
2022-08-17T10:57:40.726Z,3.22
2022-08-17T11:00:25.642Z,2.58
2022-08-17T11:02:57.754Z,3.20
2022-08-17T11:05:42.926Z,2.67
2022-08-17T11:08:37.826Z,3.10
2022-08-17T11:11:36.256Z,2.85
2022-08-17T11:14:24.976Z,2.80
2022-08-17T11:16:51.949Z,2.53
2022-08-17T11:19:40.814Z,2.75
2022-08-17T11:22:31.366Z,3.17
2022-08-17T11:25:17.678Z,2.95
2022-08-17T11:27:53.941Z,2.65
2022-08-17T11:30:48.772Z,2.90
2022-08-17T11:33:38.311Z,3.28
2022-08-17T11:36:17.732Z,2.90
2022-08-17T11:39:00.047Z,3.50
2022-08-17T11:41:46.277Z,3.35
2022-08-17T11:44:25.453Z,3.22
2022-08-17T11:47:41.993Z,5.60
2022-08-17T11:50:54.551Z,5.35
2022-08-17T11:53:54.347Z,3.53
2022-08-17T11:56:41.746Z,3.05
2022-08-17T11:59:33.432Z,2.58
2022-08-17T12:02:22.412Z,2.88
2022-08-17T12:05:03.452Z,3.10
2022-08-17T12:07:33.375Z,2.30
2022-08-17T12:10:01.398Z,3.47
2022-08-17T12:12:36.028Z,3.17
2022-08-17T12:15:12.066Z,2.55
2022-08-17T12:17:42.651Z,2.90
2022-08-17T12:20:15.742Z,2.63
2022-08-17T12:23:07.895Z,2.60
2022-08-17T12:25:39.661Z,3.03
2022-08-17T12:28:26.893Z,2.78
2022-08-17T12:30:56.463Z,2.95
2022-08-17T12:33:28.212Z,2.50
2022-08-17T12:36:05.229Z,2.78
2022-08-17T12:38:36.318Z,2.50
2022-08-17T12:41:24.961Z,2.03
2022-08-17T12:44:04.999Z,3.05
2022-08-17T12:46:51.704Z,2.65
2022-08-17T12:49:36.458Z,2.88
2022-08-17T12:52:14.288Z,2.60
2022-08-17T12:54:44.317Z,3.78
2022-08-17T12:57:33.898Z,3.08
2022-08-17T13:00:09.849Z,2.78
2022-08-17T13:05:18.068Z,2.78
2022-08-17T13:07:46.803Z,2.60
2022-08-17T13:10:21.729Z,3.70
2022-08-17T13:12:51.087Z,3.95
2022-08-17T13:15:50.914Z,3.33
2022-08-17T13:18:39.188Z,2.65
2022-08-17T13:21:24.097Z,5.95
2022-08-17T13:24:10.883Z,2.72
2022-08-17T13:26:44.734Z,3.00
2022-08-17T13:29:24.254Z,2.55
2022-08-17T13:31:58.901Z,3.40
2022-08-17T13:35:15.444Z,3.13
2022-08-17T13:37:32.665Z,2.85
2022-08-17T13:40:21.984Z,3.00
2022-08-17T13:42:53.985Z,2.97
2022-08-17T13:45:34.875Z,3.22
2022-08-17T13:48:11.167Z,2.92
2022-08-17T13:50:41.083Z,3.28
2022-08-17T13:53:33.684Z,3.15
2022-08-17T13:56:37.636Z,2.90
2022-08-17T13:59:10.082Z,2.80
2022-08-17T14:01:53.635Z,2.92
2022-08-17T14:04:29.632Z,3.00
2022-08-17T14:07:22.272Z,3.38
2022-08-17T14:10:00.213Z,3.45
2022-08-17T14:12:30.642Z,3.20
2022-08-17T14:14:59.084Z,3.95
2022-08-17T14:17:29.049Z,3.17
2022-08-17T14:19:56.447Z,2.78
2022-08-17T14:22:34.714Z,2.90
2022-08-17T14:25:02.517Z,3.22
2022-08-17T14:27:33.734Z,3.00
2022-08-17T14:30:20.158Z,3.17
2022-08-17T14:32:49.235Z,2.97
2022-08-17T14:35:16.298Z,3.10
2022-08-17T14:37:44.956Z,3.17
2022-08-17T14:40:14.533Z,3.22
2022-08-17T14:42:44.224Z,3.03
2022-08-17T14:45:30.044Z,3.97
2022-08-17T14:48:07.837Z,3.90
2022-08-17T14:50:41.414Z,3.00
2022-08-17T14:53:11.885Z,3.38
2022-08-17T14:55:40.918Z,3.13
2022-08-17T14:58:09.344Z,3.28
2022-08-17T15:00:37.551Z,3.63
2022-08-17T15:03:04.695Z,4.75
2022-08-17T15:05:35.605Z,3.60
2022-08-17T15:08:04.733Z,3.20
2022-08-17T15:10:32.367Z,3.25
2022-08-17T15:13:00.415Z,2.83
2022-08-17T15:15:28.417Z,6.28
2022-08-17T15:17:56.034Z,4.30
2022-08-17T15:20:27.770Z,6.03
2022-08-17T15:22:56.365Z,5.30
2022-08-17T15:25:28.254Z,4.10
2022-08-17T15:27:58.378Z,3.58
2022-08-17T15:30:26.202Z,3.80
2022-08-17T15:32:55.049Z,3.80
2022-08-17T15:35:27.737Z,3.33
2022-08-17T15:38:11.716Z,3.55
2022-08-17T15:40:45.418Z,3.72
2022-08-17T15:43:22.004Z,4.07
2022-08-17T15:46:00.165Z,3.72
2022-08-17T15:48:42.046Z,3.22
2022-08-17T15:51:16.446Z,3.13
2022-08-17T15:53:45.926Z,3.28
2022-08-17T15:56:15.195Z,2.70
2022-08-17T15:58:44.379Z,3.65
2022-08-17T16:01:14.658Z,3.63
2022-08-17T16:04:05.012Z,3.60
2022-08-17T16:06:32.998Z,3.22
2022-08-17T16:09:00.642Z,3.40
2022-08-17T16:11:27.569Z,3.33
2022-08-17T16:13:54.601Z,3.47
2022-08-17T16:16:23.821Z,3.85
2022-08-17T16:18:54.556Z,3.88
2022-08-17T16:21:25.903Z,3.70
2022-08-17T16:23:56.573Z,3.55
2022-08-17T16:26:23.667Z,3.45
2022-08-17T16:28:51.494Z,3.50
2022-08-17T16:31:18.413Z,3.67
2022-08-17T16:33:58.408Z,3.75
2022-08-17T16:36:32.444Z,5.70
2022-08-17T16:39:01.184Z,4.50
2022-08-17T16:41:46.746Z,3.97
2022-08-17T16:44:19.683Z,4.07
2022-08-17T16:46:48.054Z,3.75
2022-08-17T16:49:36.325Z,3.97
2022-08-17T16:52:10.720Z,4.30
2022-08-17T16:54:41.701Z,4.40
2022-08-17T16:57:08.744Z,4.65
2022-08-17T16:59:42.220Z,4.80
2022-08-17T17:02:23.794Z,5.15
2022-08-17T17:04:57.813Z,7.07
2022-08-17T17:07:36.535Z,8.13
2022-08-17T17:10:16.105Z,7.82
2022-08-17T17:13:02.006Z,8.68
2022-08-17T17:15:46.371Z,12.40
2022-08-17T17:18:15.527Z,10.43
2022-08-17T17:20:55.018Z,6.90
2022-08-17T17:23:48.317Z,6.75
2022-08-17T17:26:40.920Z,6.57
2022-08-17T17:29:47.174Z,5.50
2022-08-17T17:32:48.428Z,6.15
2022-08-17T17:35:38.519Z,6.60
2022-08-17T17:38:12.338Z,6.40
2022-08-17T17:40:43.038Z,9.65
2022-08-17T17:43:37.674Z,7.15
2022-08-17T17:46:27.767Z,5.75
2022-08-17T17:48:55.413Z,6.13
2022-08-17T17:52:09.263Z,9.70
2022-08-17T17:54:16.278Z,10.40
2022-08-17T17:57:03.419Z,5.78
2022-08-17T18:00:10.016Z,7.25
2022-08-17T18:02:55.473Z,4.95
2022-08-17T18:05:37.709Z,5.65
2022-08-17T18:08:10.930Z,5.43
2022-08-17T18:10:54.719Z,5.55
2022-08-17T18:13:41.506Z,5.88
2022-08-17T18:16:14.415Z,5.55
2022-08-17T18:18:44.908Z,5.78
2022-08-17T18:21:20.576Z,6.22
2022-08-17T18:23:56.398Z,5.57
2022-08-17T18:26:37.665Z,6.72
2022-08-17T18:29:28.175Z,6.85
2022-08-17T18:32:22.047Z,5.97
2022-08-17T18:34:53.936Z,6.18
2022-08-17T18:37:33.026Z,5.72
2022-08-17T18:40:20.537Z,5.97
2022-08-17T18:42:50.499Z,5.68
2022-08-17T18:45:34.756Z,6.72
2022-08-17T18:48:02.597Z,5.72
2022-08-17T18:50:42.562Z,5.70
2022-08-17T18:53:41.152Z,6.05
2022-08-17T18:56:31.336Z,5.00
2022-08-17T18:59:28.222Z,5.05
2022-08-17T19:02:23.220Z,5.60
2022-08-17T19:05:13.599Z,5.45
2022-08-17T19:07:46.807Z,5.82
2022-08-17T19:10:32.096Z,8.02
2022-08-17T19:13:29.458Z,6.30
2022-08-17T19:16:19.077Z,6.15
2022-08-17T19:18:52.178Z,6.18
2022-08-17T19:21:25.542Z,7.57
2022-08-17T19:23:59.170Z,6.43
2022-08-17T19:26:51.068Z,7.03
2022-08-17T19:29:35.567Z,7.00
2022-08-17T19:32:03.427Z,6.53
2022-08-17T19:34:34.670Z,7.00
2022-08-17T19:37:07.687Z,7.45
2022-08-17T19:40:10.064Z,7.10
2022-08-17T19:42:39.524Z,7.40
2022-08-17T19:45:16.067Z,6.80
2022-08-17T19:47:57.074Z,6.95
2022-08-17T19:51:07.657Z,7.10
2022-08-17T19:54:04.411Z,7.68
2022-08-17T19:56:45.184Z,7.90
2022-08-17T19:59:48.989Z,8.15
2022-08-17T20:02:39.646Z,7.93
2022-08-17T20:05:16.354Z,7.38
2022-08-17T20:08:07.897Z,7.97
2022-08-17T20:10:39.024Z,7.18
2022-08-17T20:13:13.625Z,7.25
2022-08-17T20:15:43.461Z,7.20
2022-08-17T20:18:24.506Z,6.63
2022-08-17T20:21:11.217Z,7.95
2022-08-17T20:24:06.392Z,7.85
2022-08-17T20:26:59.298Z,7.53
2022-08-17T20:29:39.880Z,6.90
2022-08-17T20:32:18.505Z,7.05
2022-08-17T20:34:47.295Z,7.60
2022-08-17T20:37:14.540Z,7.88
2022-08-17T20:39:45.657Z,7.45
2022-08-17T20:42:15.647Z,6.78
2022-08-17T20:44:43.376Z,7.28
2022-08-17T20:47:27.499Z,8.13
2022-08-17T20:50:06.145Z,8.25
2022-08-17T20:52:36.081Z,9.75
2022-08-17T20:55:05.106Z,11.38
2022-08-17T20:57:32.285Z,9.77
2022-08-17T21:00:17.563Z,8.85
2022-08-17T21:02:47.591Z,8.68
2022-08-17T21:05:30.090Z,8.80
2022-08-17T21:08:01.492Z,8.38
2022-08-17T21:10:34.184Z,8.05
2022-08-17T21:13:16.136Z,8.00
2022-08-17T21:16:01.473Z,8.10
2022-08-17T21:18:51.614Z,6.75
2022-08-17T21:22:03.330Z,6.55
2022-08-17T21:24:32.843Z,6.68
2022-08-17T21:27:32.305Z,7.22
2022-08-17T21:30:01.834Z,6.55
2022-08-17T21:32:40.401Z,6.30
2022-08-17T21:35:12.603Z,7.67
2022-08-17T21:37:43.442Z,7.50
2022-08-17T21:40:10.498Z,6.68
2022-08-17T21:42:46.903Z,7.38
2022-08-17T21:45:31.276Z,6.65
2022-08-17T21:48:13.665Z,7.68
2022-08-17T21:50:43.943Z,7.45
2022-08-17T21:53:23.032Z,6.22
2022-08-17T21:55:52.657Z,6.65
2022-08-17T21:58:31.469Z,6.53
2022-08-17T22:01:20.540Z,7.05
2022-08-17T22:03:57.088Z,6.53
2022-08-17T22:09:02.524Z,6.75
2022-08-17T22:11:29.736Z,6.97
2022-08-17T22:14:05.122Z,6.82
2022-08-17T22:16:33.424Z,6.25
2022-08-17T22:19:00.795Z,6.18
2022-08-17T22:21:28.086Z,6.53
2022-08-17T22:24:04.862Z,6.53
2022-08-17T22:26:59.597Z,6.07
2022-08-17T22:29:57.214Z,6.63
2022-08-17T22:32:41.066Z,6.57
2022-08-17T22:35:35.248Z,6.10
2022-08-17T22:38:20.771Z,6.30
2022-08-17T22:41:22.203Z,6.88
2022-08-17T22:43:50.374Z,6.93
2022-08-17T22:46:24.060Z,6.53
2022-08-17T22:48:58.067Z,6.53
2022-08-17T22:51:31.176Z,8.35
2022-08-17T22:54:20.640Z,9.48
2022-08-17T22:57:29.357Z,9.50
2022-08-17T22:59:57.704Z,7.60
2022-08-17T23:02:30.719Z,6.45
2022-08-17T23:05:17.025Z,7.40
2022-08-17T23:07:45.667Z,7.30
2022-08-17T23:10:13.909Z,6.60
2022-08-17T23:12:41.303Z,6.93
2022-08-17T23:15:16.428Z,6.43
2022-08-17T23:17:44.536Z,7.18
2022-08-17T23:20:14.863Z,6.75
2022-08-17T23:22:52.209Z,6.80
2022-08-17T23:25:28.152Z,6.88
2022-08-17T23:27:57.546Z,6.40
2022-08-17T23:30:25.782Z,6.43
2022-08-17T23:32:54.589Z,6.40
2022-08-17T23:35:40.540Z,6.65
2022-08-17T23:38:13.138Z,6.85
2022-08-17T23:40:41.054Z,6.97
2022-08-17T23:43:24.146Z,5.93
2022-08-17T23:45:54.827Z,6.57
2022-08-17T23:48:27.797Z,6.32
2022-08-17T23:51:04.883Z,5.60
2022-08-17T23:53:35.097Z,5.47
2022-08-17T23:56:09.636Z,5.32
2022-08-17T23:58:42.749Z,5.32
